sensor_id;sensor_type;location;lat;lon;timestamp;P1;durP1;ratioP1;P2;durP2;ratioP2
17524;SDS011;40431;52.198;9.902;2023-04-15T00:01:57;7.50;;;7.00;;
17524;SDS011;40431;52.198;9.902;2023-04-15T00:04:25;8.13;;;7.60;;
17524;SDS011;40431;52.198;9.902;2023-04-15T00:06:52;8.93;;;8.07;;
17524;SDS011;40431;52.198;9.902;2023-04-15T00:09:19;6.33;;;5.93;;
17524;SDS011;40431;52.198;9.902;2023-04-15T00:11:45;7.20;;;6.63;;
17524;SDS011;40431;52.198;9.902;2023-04-15T00:14:12;7.30;;;6.80;;
17524;SDS011;40431;52.198;9.902;2023-04-15T00:16:38;7.63;;;7.03;;
17524;SDS011;40431;52.198;9.902;2023-04-15T00:19:05;7.60;;;7.10;;
17524;SDS011;40431;52.198;9.902;2023-04-15T00:21:33;7.47;;;6.97;;
17524;SDS011;40431;52.198;9.902;2023-04-15T00:23:59;7.50;;;7.00;;
17524;SDS011;40431;52.198;9.902;2023-04-15T00:26:26;7.37;;;6.87;;
17524;SDS011;40431;52.198;9.902;2023-04-15T00:28:52;6.63;;;6.13;;
17524;SDS011;40431;52.198;9.902;2023-04-15T00:31:19;7.17;;;6.67;;
17524;SDS011;40431;52.198;9.902;2023-04-15T00:33:45;7.50;;;6.80;;
17524;SDS011;40431;52.198;9.902;2023-04-15T00:36:12;6.60;;;6.20;;
17524;SDS011;40431;52.198;9.902;2023-04-15T00:38:40;6.67;;;6.17;;
17524;SDS011;40431;52.198;9.902;2023-04-15T00:41:06;7.90;;;7.40;;
17524;SDS011;40431;52.198;9.902;2023-04-15T00:43:34;7.43;;;6.93;;
17524;SDS011;40431;52.198;9.902;2023-04-15T00:46:00;8.00;;;7.50;;
17524;SDS011;40431;52.198;9.902;2023-04-15T00:48:29;7.87;;;7.27;;
17524;SDS011;40431;52.198;9.902;2023-04-15T00:50:56;8.40;;;7.80;;
17524;SDS011;40431;52.198;9.902;2023-04-15T00:53:23;8.13;;;7.50;;
17524;SDS011;40431;52.198;9.902;2023-04-15T00:55:51;7.63;;;7.13;;
17524;SDS011;40431;52.198;9.902;2023-04-15T00:58:17;8.00;;;7.37;;
17524;SDS011;40431;52.198;9.902;2023-04-15T01:00:44;8.43;;;7.73;;
17524;SDS011;40431;52.198;9.902;2023-04-15T01:03:11;8.33;;;7.67;;
17524;SDS011;40431;52.198;9.902;2023-04-15T01:05:37;7.80;;;7.20;;
17524;SDS011;40431;52.198;9.902;2023-04-15T01:08:04;7.63;;;7.03;;
17524;SDS011;40431;52.198;9.902;2023-04-15T01:10:30;8.30;;;7.70;;
17524;SDS011;40431;52.198;9.902;2023-04-15T01:12:58;8.13;;;7.53;;
17524;SDS011;40431;52.198;9.902;2023-04-15T01:15:25;7.70;;;7.17;;
17524;SDS011;40431;52.198;9.902;2023-04-15T01:17:51;7.70;;;7.10;;
17524;SDS011;40431;52.198;9.902;2023-04-15T01:20:17;8.70;;;8.00;;
17524;SDS011;40431;52.198;9.902;2023-04-15T01:22:44;8.27;;;7.67;;
17524;SDS011;40431;52.198;9.902;2023-04-15T01:25:11;7.37;;;6.87;;
17524;SDS011;40431;52.198;9.902;2023-04-15T01:27:43;9.13;;;8.23;;
17524;SDS011;40431;52.198;9.902;2023-04-15T01:30:10;8.47;;;7.87;;
17524;SDS011;40431;52.198;9.902;2023-04-15T01:32:37;7.77;;;7.17;;
17524;SDS011;40431;52.198;9.902;2023-04-15T01:35:03;8.37;;;7.77;;
17524;SDS011;40431;52.198;9.902;2023-04-15T01:37:30;7.73;;;7.23;;
17524;SDS011;40431;52.198;9.902;2023-04-15T01:39:57;9.10;;;8.50;;
17524;SDS011;40431;52.198;9.902;2023-04-15T01:42:23;9.17;;;8.37;;
17524;SDS011;40431;52.198;9.902;2023-04-15T01:44:51;9.33;;;8.63;;
17524;SDS011;40431;52.198;9.902;2023-04-15T01:47:18;9.20;;;8.60;;
17524;SDS011;40431;52.198;9.902;2023-04-15T01:49:44;8.23;;;7.63;;
17524;SDS011;40431;52.198;9.902;2023-04-15T01:52:11;8.97;;;8.27;;
17524;SDS011;40431;52.198;9.902;2023-04-15T01:54:37;8.83;;;8.13;;
17524;SDS011;40431;52.198;9.902;2023-04-15T01:57:03;8.47;;;7.87;;
17524;SDS011;40431;52.198;9.902;2023-04-15T01:59:30;8.57;;;7.97;;
17524;SDS011;40431;52.198;9.902;2023-04-15T02:01:57;8.57;;;7.97;;
17524;SDS011;40431;52.198;9.902;2023-04-15T02:04:25;9.63;;;8.93;;
17524;SDS011;40431;52.198;9.902;2023-04-15T02:06:52;9.10;;;8.43;;
17524;SDS011;40431;52.198;9.902;2023-04-15T02:09:18;9.70;;;9.00;;
17524;SDS011;40431;52.198;9.902;2023-04-15T02:11:44;8.20;;;7.60;;
17524;SDS011;40431;52.198;9.902;2023-04-15T02:14:11;10.00;;;9.20;;
17524;SDS011;40431;52.198;9.902;2023-04-15T02:16:38;10.47;;;9.77;;
17524;SDS011;40431;52.198;9.902;2023-04-15T02:19:06;9.93;;;9.27;;
17524;SDS011;40431;52.198;9.902;2023-04-15T02:21:33;10.77;;;9.97;;
17524;SDS011;40431;52.198;9.902;2023-04-15T02:24:00;10.27;;;9.57;;
17524;SDS011;40431;52.198;9.902;2023-04-15T02:26:28;10.77;;;10.07;;
17524;SDS011;40431;52.198;9.902;2023-04-15T02:28:56;11.23;;;10.20;;
17524;SDS011;40431;52.198;9.902;2023-04-15T02:31:22;11.03;;;9.90;;
17524;SDS011;40431;52.198;9.902;2023-04-15T02:33:50;11.57;;;10.50;;
17524;SDS011;40431;52.198;9.902;2023-04-15T02:36:17;14.37;;;12.30;;
17524;SDS011;40431;52.198;9.902;2023-04-15T02:38:45;11.27;;;10.47;;
17524;SDS011;40431;52.198;9.902;2023-04-15T02:41:11;12.43;;;11.53;;
17524;SDS011;40431;52.198;9.902;2023-04-15T02:43:38;12.00;;;11.10;;
17524;SDS011;40431;52.198;9.902;2023-04-15T02:46:04;11.80;;;10.90;;
17524;SDS011;40431;52.198;9.902;2023-04-15T02:48:31;11.40;;;10.47;;
17524;SDS011;40431;52.198;9.902;2023-04-15T02:51:10;12.37;;;11.47;;
17524;SDS011;40431;52.198;9.902;2023-04-15T02:53:38;12.73;;;11.63;;
17524;SDS011;40431;52.198;9.902;2023-04-15T02:56:05;12.80;;;11.90;;
17524;SDS011;40431;52.198;9.902;2023-04-15T02:58:32;14.73;;;13.53;;
17524;SDS011;40431;52.198;9.902;2023-04-15T03:00:59;14.00;;;12.97;;
17524;SDS011;40431;52.198;9.902;2023-04-15T03:03:26;14.37;;;13.17;;
17524;SDS011;40431;52.198;9.902;2023-04-15T03:05:53;15.13;;;13.93;;
17524;SDS011;40431;52.198;9.902;2023-04-15T03:08:19;15.67;;;14.47;;
17524;SDS011;40431;52.198;9.902;2023-04-15T03:10:47;14.10;;;13.03;;
17524;SDS011;40431;52.198;9.902;2023-04-15T03:13:16;14.93;;;13.83;;
17524;SDS011;40431;52.198;9.902;2023-04-15T03:15:42;13.83;;;12.63;;
17524;SDS011;40431;52.198;9.902;2023-04-15T03:18:09;14.30;;;13.10;;
17524;SDS011;40431;52.198;9.902;2023-04-15T03:20:35;13.03;;;11.97;;
17524;SDS011;40431;52.198;9.902;2023-04-15T03:23:01;14.60;;;13.50;;
17524;SDS011;40431;52.198;9.902;2023-04-15T03:25:28;15.53;;;14.33;;
17524;SDS011;40431;52.198;9.902;2023-04-15T03:27:55;15.40;;;14.17;;
17524;SDS011;40431;52.198;9.902;2023-04-15T03:30:22;14.70;;;13.53;;
17524;SDS011;40431;52.198;9.902;2023-04-15T03:32:48;15.03;;;13.83;;
17524;SDS011;40431;52.198;9.902;2023-04-15T03:35:15;14.57;;;13.37;;
17524;SDS011;40431;52.198;9.902;2023-04-15T03:37:41;14.20;;;13.10;;
17524;SDS011;40431;52.198;9.902;2023-04-15T03:40:08;14.33;;;13.23;;
17524;SDS011;40431;52.198;9.902;2023-04-15T03:42:35;15.23;;;14.13;;
17524;SDS011;40431;52.198;9.902;2023-04-15T03:45:03;15.47;;;14.17;;
17524;SDS011;40431;52.198;9.902;2023-04-15T03:47:31;15.00;;;13.80;;
17524;SDS011;40431;52.198;9.902;2023-04-15T03:49:57;15.87;;;14.57;;
17524;SDS011;40431;52.198;9.902;2023-04-15T03:52:24;15.00;;;13.80;;
17524;SDS011;40431;52.198;9.902;2023-04-15T03:54:50;16.10;;;14.80;;
17524;SDS011;40431;52.198;9.902;2023-04-15T03:57:17;15.37;;;14.10;;
17524;SDS011;40431;52.198;9.902;2023-04-15T03:59:43;15.30;;;14.00;;
17524;SDS011;40431;52.198;9.902;2023-04-15T04:02:11;16.80;;;15.33;;
17524;SDS011;40431;52.198;9.902;2023-04-15T04:04:37;16.10;;;14.80;;
17524;SDS011;40431;52.198;9.902;2023-04-15T04:07:04;16.63;;;15.40;;
17524;SDS011;40431;52.198;9.902;2023-04-15T04:09:30;17.63;;;16.03;;
17524;SDS011;40431;52.198;9.902;2023-04-15T04:11:56;16.77;;;15.17;;
17524;SDS011;40431;52.198;9.902;2023-04-15T04:14:23;17.73;;;16.27;;
17524;SDS011;40431;52.198;9.902;2023-04-15T04:16:53;18.30;;;16.80;;
17524;SDS011;40431;52.198;9.902;2023-04-15T04:19:21;17.83;;;16.43;;
17524;SDS011;40431;52.198;9.902;2023-04-15T04:21:48;19.13;;;17.27;;
17524;SDS011;40431;52.198;9.902;2023-04-15T04:24:14;19.13;;;17.43;;
17524;SDS011;40431;52.198;9.902;2023-04-15T04:26:41;19.77;;;18.07;;
17524;SDS011;40431;52.198;9.902;2023-04-15T04:29:07;19.43;;;17.63;;
17524;SDS011;40431;52.198;9.902;2023-04-15T04:31:33;20.33;;;18.67;;
17524;SDS011;40431;52.198;9.902;2023-04-15T04:34:00;20.40;;;18.70;;
17524;SDS011;40431;52.198;9.902;2023-04-15T04:36:28;21.57;;;19.80;;
17524;SDS011;40431;52.198;9.902;2023-04-15T04:38:54;20.33;;;18.60;;
17524;SDS011;40431;52.198;9.902;2023-04-15T04:41:21;21.37;;;19.10;;
17524;SDS011;40431;52.198;9.902;2023-04-15T04:43:47;23.27;;;20.83;;
17524;SDS011;40431;52.198;9.902;2023-04-15T04:46:14;21.17;;;19.13;;
17524;SDS011;40431;52.198;9.902;2023-04-15T04:48:40;22.87;;;20.73;;
17524;SDS011;40431;52.198;9.902;2023-04-15T04:51:06;23.40;;;21.00;;
17524;SDS011;40431;52.198;9.902;2023-04-15T04:53:34;23.97;;;21.47;;
17524;SDS011;40431;52.198;9.902;2023-04-15T04:56:01;24.97;;;22.83;;
17524;SDS011;40431;52.198;9.902;2023-04-15T04:58:28;24.07;;;21.97;;
17524;SDS011;40431;52.198;9.902;2023-04-15T05:00:54;25.57;;;22.90;;
17524;SDS011;40431;52.198;9.902;2023-04-15T05:03:22;24.67;;;22.20;;
17524;SDS011;40431;52.198;9.902;2023-04-15T05:05:48;26.03;;;23.57;;
17524;SDS011;40431;52.198;9.902;2023-04-15T05:08:15;25.70;;;23.03;;
17524;SDS011;40431;52.198;9.902;2023-04-15T05:10:42;27.97;;;24.60;;
17524;SDS011;40431;52.198;9.902;2023-04-15T05:13:09;25.87;;;23.13;;
17524;SDS011;40431;52.198;9.902;2023-04-15T05:15:36;29.40;;;24.77;;
17524;SDS011;40431;52.198;9.902;2023-04-15T05:18:05;27.13;;;24.70;;
17524;SDS011;40431;52.198;9.902;2023-04-15T05:20:31;27.47;;;23.63;;
17524;SDS011;40431;52.198;9.902;2023-04-15T05:22:58;27.93;;;24.00;;
17524;SDS011;40431;52.198;9.902;2023-04-15T05:25:24;27.20;;;24.10;;
17524;SDS011;40431;52.198;9.902;2023-04-15T05:27:52;26.83;;;23.97;;
17524;SDS011;40431;52.198;9.902;2023-04-15T05:30:18;27.10;;;23.60;;
17524;SDS011;40431;52.198;9.902;2023-04-15T05:32:45;26.60;;;22.17;;
17524;SDS011;40431;52.198;9.902;2023-04-15T05:35:11;25.97;;;23.30;;
17524;SDS011;40431;52.198;9.902;2023-04-15T05:37:37;25.37;;;22.97;;
17524;SDS011;40431;52.198;9.902;2023-04-15T05:40:05;26.47;;;23.50;;
17524;SDS011;40431;52.198;9.902;2023-04-15T05:42:32;24.37;;;21.93;;
17524;SDS011;40431;52.198;9.902;2023-04-15T05:44:59;24.37;;;21.83;;
17524;SDS011;40431;52.198;9.902;2023-04-15T05:47:29;24.37;;;21.97;;
17524;SDS011;40431;52.198;9.902;2023-04-15T05:49:55;26.83;;;24.13;;
17524;SDS011;40431;52.198;9.902;2023-04-15T05:52:23;24.57;;;21.77;;
17524;SDS011;40431;52.198;9.902;2023-04-15T05:54:49;24.17;;;21.87;;
17524;SDS011;40431;52.198;9.902;2023-04-15T05:57:16;25.70;;;23.10;;
17524;SDS011;40431;52.198;9.902;2023-04-15T05:59:42;24.43;;;22.13;;
17524;SDS011;40431;52.198;9.902;2023-04-15T06:02:10;25.83;;;23.23;;
17524;SDS011;40431;52.198;9.902;2023-04-15T06:04:37;22.93;;;20.90;;
17524;SDS011;40431;52.198;9.902;2023-04-15T06:07:03;24.00;;;21.67;;
17524;SDS011;40431;52.198;9.902;2023-04-15T06:09:30;23.40;;;21.30;;
17524;SDS011;40431;52.198;9.902;2023-04-15T06:11:57;24.03;;;21.73;;
17524;SDS011;40431;52.198;9.902;2023-04-15T06:14:23;22.27;;;20.23;;
17524;SDS011;40431;52.198;9.902;2023-04-15T06:16:50;22.73;;;20.57;;
17524;SDS011;40431;52.198;9.902;2023-04-15T06:19:18;23.13;;;21.03;;
17524;SDS011;40431;52.198;9.902;2023-04-15T06:21:44;22.50;;;20.33;;
17524;SDS011;40431;52.198;9.902;2023-04-15T06:24:11;22.43;;;20.43;;
17524;SDS011;40431;52.198;9.902;2023-04-15T06:26:37;21.70;;;19.93;;
17524;SDS011;40431;52.198;9.902;2023-04-15T06:29:04;22.17;;;20.37;;
17524;SDS011;40431;52.198;9.902;2023-04-15T06:31:30;21.23;;;19.33;;
17524;SDS011;40431;52.198;9.902;2023-04-15T06:33:57;21.23;;;19.13;;
17524;SDS011;40431;52.198;9.902;2023-04-15T06:36:24;19.80;;;18.20;;
17524;SDS011;40431;52.198;9.902;2023-04-15T06:38:51;19.50;;;17.90;;
17524;SDS011;40431;52.198;9.902;2023-04-15T06:41:18;19.57;;;17.93;;
17524;SDS011;40431;52.198;9.902;2023-04-15T06:43:44;18.30;;;16.80;;
17524;SDS011;40431;52.198;9.902;2023-04-15T06:46:11;17.63;;;16.13;;
17524;SDS011;40431;52.198;9.902;2023-04-15T06:48:37;17.40;;;15.90;;
17524;SDS011;40431;52.198;9.902;2023-04-15T06:51:04;18.63;;;16.93;;
17524;SDS011;40431;52.198;9.902;2023-04-15T06:53:32;17.07;;;15.67;;
17524;SDS011;40431;52.198;9.902;2023-04-15T06:55:59;19.13;;;17.43;;
17524;SDS011;40431;52.198;9.902;2023-04-15T06:58:25;17.80;;;16.40;;
17524;SDS011;40431;52.198;9.902;2023-04-15T07:00:52;18.10;;;16.70;;
17524;SDS011;40431;52.198;9.902;2023-04-15T07:03:18;15.33;;;14.03;;
17524;SDS011;40431;52.198;9.902;2023-04-15T07:05:45;16.07;;;14.77;;
17524;SDS011;40431;52.198;9.902;2023-04-15T07:08:11;14.50;;;13.33;;
17524;SDS011;40431;52.198;9.902;2023-04-15T07:10:39;14.50;;;13.40;;
17524;SDS011;40431;52.198;9.902;2023-04-15T07:13:06;15.80;;;14.53;;
17524;SDS011;40431;52.198;9.902;2023-04-15T07:15:32;15.37;;;14.23;;
17524;SDS011;40431;52.198;9.902;2023-04-15T07:17:59;16.17;;;14.87;;
17524;SDS011;40431;52.198;9.902;2023-04-15T07:20:26;14.23;;;13.13;;
17524;SDS011;40431;52.198;9.902;2023-04-15T07:22:52;15.00;;;13.80;;
17524;SDS011;40431;52.198;9.902;2023-04-15T07:25:18;16.13;;;14.83;;
17524;SDS011;40431;52.198;9.902;2023-04-15T07:27:46;14.73;;;13.53;;
17524;SDS011;40431;52.198;9.902;2023-04-15T07:30:13;16.30;;;14.90;;
17524;SDS011;40431;52.198;9.902;2023-04-15T07:32:40;14.77;;;13.67;;
17524;SDS011;40431;52.198;9.902;2023-04-15T07:35:07;15.03;;;13.93;;
17524;SDS011;40431;52.198;9.902;2023-04-15T07:37:34;15.27;;;14.07;;
17524;SDS011;40431;52.198;9.902;2023-04-15T07:40:01;16.37;;;15.07;;
17524;SDS011;40431;52.198;9.902;2023-04-15T07:42:30;14.53;;;13.43;;
17524;SDS011;40431;52.198;9.902;2023-04-15T07:44:58;14.93;;;13.83;;
17524;SDS011;40431;52.198;9.902;2023-04-15T07:47:25;15.60;;;14.40;;
17524;SDS011;40431;52.198;9.902;2023-04-15T07:49:52;13.87;;;12.87;;
17524;SDS011;40431;52.198;9.902;2023-04-15T07:52:18;14.63;;;13.53;;
17524;SDS011;40431;52.198;9.902;2023-04-15T07:54:45;13.17;;;12.17;;
17524;SDS011;40431;52.198;9.902;2023-04-15T07:57:11;14.13;;;13.13;;
17524;SDS011;40431;52.198;9.902;2023-04-15T07:59:37;13.53;;;12.43;;
17524;SDS011;40431;52.198;9.902;2023-04-15T08:02:05;14.00;;;12.93;;
17524;SDS011;40431;52.198;9.902;2023-04-15T08:04:32;13.10;;;12.10;;
17524;SDS011;40431;52.198;9.902;2023-04-15T08:06:58;13.37;;;12.30;;
17524;SDS011;40431;52.198;9.902;2023-04-15T08:09:25;12.63;;;11.73;;
17524;SDS011;40431;52.198;9.902;2023-04-15T08:11:51;13.03;;;12.03;;
17524;SDS011;40431;52.198;9.902;2023-04-15T08:14:18;13.70;;;12.70;;
17524;SDS011;40431;52.198;9.902;2023-04-15T08:16:44;12.10;;;11.20;;
17524;SDS011;40431;52.198;9.902;2023-04-15T08:19:12;12.37;;;11.50;;
17524;SDS011;40431;52.198;9.902;2023-04-15T08:21:39;12.37;;;11.47;;
17524;SDS011;40431;52.198;9.902;2023-04-15T08:24:05;12.40;;;11.50;;
17524;SDS011;40431;52.198;9.902;2023-04-15T08:26:32;12.33;;;11.50;;
17524;SDS011;40431;52.198;9.902;2023-04-15T08:28:59;11.37;;;10.57;;
17524;SDS011;40431;52.198;9.902;2023-04-15T08:31:26;10.90;;;10.10;;
17524;SDS011;40431;52.198;9.902;2023-04-15T08:33:55;11.67;;;10.87;;
17524;SDS011;40431;52.198;9.902;2023-04-15T08:36:23;11.47;;;10.67;;
17524;SDS011;40431;52.198;9.902;2023-04-15T08:38:49;10.53;;;9.83;;
17524;SDS011;40431;52.198;9.902;2023-04-15T08:41:18;10.67;;;9.87;;
17524;SDS011;40431;52.198;9.902;2023-04-15T08:43:48;11.07;;;10.27;;
17524;SDS011;40431;52.198;9.902;2023-04-15T08:46:18;10.13;;;9.43;;
17524;SDS011;40431;52.198;9.902;2023-04-15T08:48:46;10.10;;;9.40;;
17524;SDS011;40431;52.198;9.902;2023-04-15T08:51:13;8.93;;;8.33;;
17524;SDS011;40431;52.198;9.902;2023-04-15T08:53:41;9.03;;;8.50;;
17524;SDS011;40431;52.198;9.902;2023-04-15T08:56:08;9.60;;;9.00;;
17524;SDS011;40431;52.198;9.902;2023-04-15T08:58:36;10.23;;;9.53;;
17524;SDS011;40431;52.198;9.902;2023-04-15T09:01:03;7.63;;;7.13;;
17524;SDS011;40431;52.198;9.902;2023-04-15T09:03:32;8.90;;;8.30;;
17524;SDS011;40431;52.198;9.902;2023-04-15T09:05:59;9.77;;;9.07;;
17524;SDS011;40431;52.198;9.902;2023-04-15T09:08:26;9.30;;;8.70;;
17524;SDS011;40431;52.198;9.902;2023-04-15T09:10:53;9.90;;;9.27;;
17524;SDS011;40431;52.198;9.902;2023-04-15T09:13:20;7.87;;;7.37;;
17524;SDS011;40431;52.198;9.902;2023-04-15T09:15:46;8.20;;;7.60;;
17524;SDS011;40431;52.198;9.902;2023-04-15T09:18:17;7.97;;;7.47;;
17524;SDS011;40431;52.198;9.902;2023-04-15T09:20:52;7.67;;;7.17;;
17524;SDS011;40431;52.198;9.902;2023-04-15T09:23:19;8.03;;;7.47;;
17524;SDS011;40431;52.198;9.902;2023-04-15T09:25:45;7.40;;;6.90;;
17524;SDS011;40431;52.198;9.902;2023-04-15T09:28:14;6.87;;;6.37;;
17524;SDS011;40431;52.198;9.902;2023-04-15T09:30:50;7.70;;;7.20;;
17524;SDS011;40431;52.198;9.902;2023-04-15T09:33:17;6.80;;;6.37;;
17524;SDS011;40431;52.198;9.902;2023-04-15T09:35:47;6.40;;;6.00;;
17524;SDS011;40431;52.198;9.902;2023-04-15T09:38:22;6.90;;;6.50;;
17524;SDS011;40431;52.198;9.902;2023-04-15T09:40:48;6.90;;;6.40;;
17524;SDS011;40431;52.198;9.902;2023-04-15T09:43:16;6.87;;;6.40;;
17524;SDS011;40431;52.198;9.902;2023-04-15T09:45:46;6.53;;;6.10;;
17524;SDS011;40431;52.198;9.902;2023-04-15T09:48:14;8.97;;;8.37;;
17524;SDS011;40431;52.198;9.902;2023-04-15T09:50:42;12.90;;;11.77;;
17524;SDS011;40431;52.198;9.902;2023-04-15T09:53:08;10.30;;;9.50;;
17524;SDS011;40431;52.198;9.902;2023-04-15T09:55:36;8.50;;;7.90;;
17524;SDS011;40431;52.198;9.902;2023-04-15T09:58:02;8.43;;;7.83;;
17524;SDS011;40431;52.198;9.902;2023-04-15T10:00:35;8.57;;;7.90;;
17524;SDS011;40431;52.198;9.902;2023-04-15T10:03:02;8.00;;;7.40;;
17524;SDS011;40431;52.198;9.902;2023-04-15T10:05:31;8.23;;;7.53;;
17524;SDS011;40431;52.198;9.902;2023-04-15T10:07:57;10.10;;;9.10;;
17524;SDS011;40431;52.198;9.902;2023-04-15T10:10:25;9.53;;;8.63;;
17524;SDS011;40431;52.198;9.902;2023-04-15T10:12:52;29.33;;;26.23;;
17524;SDS011;40431;52.198;9.902;2023-04-15T10:15:20;11.03;;;10.13;;
17524;SDS011;40431;52.198;9.902;2023-04-15T10:17:49;15.10;;;13.97;;
17524;SDS011;40431;52.198;9.902;2023-04-15T10:20:18;11.37;;;10.57;;
17524;SDS011;40431;52.198;9.902;2023-04-15T10:22:45;10.23;;;9.37;;
17524;SDS011;40431;52.198;9.902;2023-04-15T10:25:12;10.73;;;9.83;;
17524;SDS011;40431;52.198;9.902;2023-04-15T10:27:40;11.17;;;10.17;;
17524;SDS011;40431;52.198;9.902;2023-04-15T10:30:07;10.33;;;9.53;;
17524;SDS011;40431;52.198;9.902;2023-04-15T10:32:34;11.50;;;10.60;;
17524;SDS011;40431;52.198;9.902;2023-04-15T10:35:02;12.10;;;11.00;;
17524;SDS011;40431;52.198;9.902;2023-04-15T10:37:33;12.27;;;11.23;;
17524;SDS011;40431;52.198;9.902;2023-04-15T10:42:49;14.07;;;12.97;;
17524;SDS011;40431;52.198;9.902;2023-04-15T10:45:17;13.33;;;12.23;;
17524;SDS011;40431;52.198;9.902;2023-04-15T10:47:44;14.10;;;13.00;;
17524;SDS011;40431;52.198;9.902;2023-04-15T10:50:11;13.63;;;12.50;;
17524;SDS011;40431;52.198;9.902;2023-04-15T10:52:39;13.90;;;12.63;;
17524;SDS011;40431;52.198;9.902;2023-04-15T10:55:11;24.10;;;21.60;;
17524;SDS011;40431;52.198;9.902;2023-04-15T10:57:40;21.17;;;19.00;;
17524;SDS011;40431;52.198;9.902;2023-04-15T11:00:11;20.53;;;18.57;;
17524;SDS011;40431;52.198;9.902;2023-04-15T11:02:43;22.07;;;19.90;;
17524;SDS011;40431;52.198;9.902;2023-04-15T11:05:12;19.83;;;17.93;;
17524;SDS011;40431;52.198;9.902;2023-04-15T11:07:41;18.47;;;16.87;;
17524;SDS011;40431;52.198;9.902;2023-04-15T11:13:18;18.13;;;16.47;;
17524;SDS011;40431;52.198;9.902;2023-04-15T11:15:47;20.90;;;18.80;;
17524;SDS011;40431;52.198;9.902;2023-04-15T11:18:14;19.30;;;17.33;;
17524;SDS011;40431;52.198;9.902;2023-04-15T11:20:43;20.47;;;18.37;;
17524;SDS011;40431;52.198;9.902;2023-04-15T11:23:12;22.43;;;19.93;;
17524;SDS011;40431;52.198;9.902;2023-04-15T11:25:39;21.27;;;18.93;;
17524;SDS011;40431;52.198;9.902;2023-04-15T11:28:05;29.43;;;19.53;;
17524;SDS011;40431;52.198;9.902;2023-04-15T11:30:32;30.17;;;21.73;;
17524;SDS011;40431;52.198;9.902;2023-04-15T11:33:01;26.13;;;22.10;;
17524;SDS011;40431;52.198;9.902;2023-04-15T11:35:28;28.67;;;22.77;;
17524;SDS011;40431;52.198;9.902;2023-04-15T11:37:57;33.33;;;23.33;;
17524;SDS011;40431;52.198;9.902;2023-04-15T11:40:23;31.23;;;23.80;;
17524;SDS011;40431;52.198;9.902;2023-04-15T11:43:02;34.37;;;24.27;;
17524;SDS011;40431;52.198;9.902;2023-04-15T11:45:29;40.07;;;25.97;;
17524;SDS011;40431;52.198;9.902;2023-04-15T11:48:00;39.93;;;26.27;;
17524;SDS011;40431;52.198;9.902;2023-04-15T11:50:31;46.40;;;28.27;;
17524;SDS011;40431;52.198;9.902;2023-04-15T11:52:59;49.17;;;28.53;;
17524;SDS011;40431;52.198;9.902;2023-04-15T11:55:27;46.10;;;29.67;;
17524;SDS011;40431;52.198;9.902;2023-04-15T11:58:09;49.13;;;30.27;;
17524;SDS011;40431;52.198;9.902;2023-04-15T12:00:37;52.10;;;31.77;;
17524;SDS011;40431;52.198;9.902;2023-04-15T12:03:11;50.63;;;31.57;;
17524;SDS011;40431;52.198;9.902;2023-04-15T12:11:40;56.57;;;32.30;;
17524;SDS011;40431;52.198;9.902;2023-04-15T12:14:09;63.47;;;34.63;;
17524;SDS011;40431;52.198;9.902;2023-04-15T12:16:42;60.93;;;35.43;;
17524;SDS011;40431;52.198;9.902;2023-04-15T12:19:11;61.53;;;33.80;;
17524;SDS011;40431;52.198;9.902;2023-04-15T12:21:39;60.03;;;34.00;;
17524;SDS011;40431;52.198;9.902;2023-04-15T12:24:07;60.23;;;35.90;;
17524;SDS011;40431;52.198;9.902;2023-04-15T12:26:41;78.40;;;41.97;;
17524;SDS011;40431;52.198;9.902;2023-04-15T12:29:09;78.10;;;43.83;;
17524;SDS011;40431;52.198;9.902;2023-04-15T12:31:42;79.13;;;44.30;;
17524;SDS011;40431;52.198;9.902;2023-04-15T12:34:13;83.70;;;43.30;;
17524;SDS011;40431;52.198;9.902;2023-04-15T12:36:40;94.47;;;48.10;;
17524;SDS011;40431;52.198;9.902;2023-04-15T12:39:07;93.13;;;46.60;;
17524;SDS011;40431;52.198;9.902;2023-04-15T12:41:34;94.33;;;47.30;;
17524;SDS011;40431;52.198;9.902;2023-04-15T12:44:02;91.17;;;46.40;;
17524;SDS011;40431;52.198;9.902;2023-04-15T12:46:28;95.93;;;48.63;;
17524;SDS011;40431;52.198;9.902;2023-04-15T12:48:55;92.97;;;48.60;;
17524;SDS011;40431;52.198;9.902;2023-04-15T12:51:22;100.83;;;52.07;;
17524;SDS011;40431;52.198;9.902;2023-04-15T12:53:48;93.93;;;50.77;;
17524;SDS011;40431;52.198;9.902;2023-04-15T12:56:14;99.23;;;51.87;;
17524;SDS011;40431;52.198;9.902;2023-04-15T12:58:42;92.17;;;49.53;;
17524;SDS011;40431;52.198;9.902;2023-04-15T13:01:09;100.70;;;51.43;;
17524;SDS011;40431;52.198;9.902;2023-04-15T13:03:36;93.80;;;50.37;;
17524;SDS011;40431;52.198;9.902;2023-04-15T13:06:02;91.43;;;48.77;;
17524;SDS011;40431;52.198;9.902;2023-04-15T13:08:29;104.00;;;52.60;;
17524;SDS011;40431;52.198;9.902;2023-04-15T13:10:56;96.70;;;49.77;;
17524;SDS011;40431;52.198;9.902;2023-04-15T13:13:22;79.07;;;46.13;;
17524;SDS011;40431;52.198;9.902;2023-04-15T13:15:49;88.43;;;46.67;;
17524;SDS011;40431;52.198;9.902;2023-04-15T13:18:17;88.27;;;45.83;;
17524;SDS011;40431;52.198;9.902;2023-04-15T13:20:44;85.67;;;46.27;;
17524;SDS011;40431;52.198;9.902;2023-04-15T13:23:10;73.43;;;42.33;;
17524;SDS011;40431;52.198;9.902;2023-04-15T13:25:36;75.23;;;44.33;;
17524;SDS011;40431;52.198;9.902;2023-04-15T13:28:03;72.47;;;40.60;;
17524;SDS011;40431;52.198;9.902;2023-04-15T13:30:29;78.77;;;42.83;;
17524;SDS011;40431;52.198;9.902;2023-04-15T13:32:56;72.63;;;43.53;;
17524;SDS011;40431;52.198;9.902;2023-04-15T13:35:24;73.10;;;45.20;;
17524;SDS011;40431;52.198;9.902;2023-04-15T13:37:50;70.33;;;43.40;;
17524;SDS011;40431;52.198;9.902;2023-04-15T13:40:18;76.07;;;42.43;;
17524;SDS011;40431;52.198;9.902;2023-04-15T13:42:45;66.27;;;40.97;;
17524;SDS011;40431;52.198;9.902;2023-04-15T13:45:11;64.17;;;39.57;;
17524;SDS011;40431;52.198;9.902;2023-04-15T13:47:37;68.93;;;40.80;;
17524;SDS011;40431;52.198;9.902;2023-04-15T13:50:04;61.23;;;39.70;;
17524;SDS011;40431;52.198;9.902;2023-04-15T13:52:32;71.77;;;43.27;;
17524;SDS011;40431;52.198;9.902;2023-04-15T13:54:59;59.70;;;38.27;;
17524;SDS011;40431;52.198;9.902;2023-04-15T13:57:26;67.67;;;40.23;;
17524;SDS011;40431;52.198;9.902;2023-04-15T13:59:52;64.47;;;38.87;;
17524;SDS011;40431;52.198;9.902;2023-04-15T14:02:19;52.03;;;37.37;;
17524;SDS011;40431;52.198;9.902;2023-04-15T14:04:46;54.83;;;37.53;;
17524;SDS011;40431;52.198;9.902;2023-04-15T14:07:13;53.03;;;35.80;;
17524;SDS011;40431;52.198;9.902;2023-04-15T14:09:41;55.17;;;38.17;;
17524;SDS011;40431;52.198;9.902;2023-04-15T14:12:08;51.37;;;34.97;;
17524;SDS011;40431;52.198;9.902;2023-04-15T14:14:35;51.93;;;36.00;;
17524;SDS011;40431;52.198;9.902;2023-04-15T14:17:01;44.60;;;33.57;;
17524;SDS011;40431;52.198;9.902;2023-04-15T14:19:28;44.77;;;33.60;;
17524;SDS011;40431;52.198;9.902;2023-04-15T14:21:55;45.47;;;32.83;;
17524;SDS011;40431;52.198;9.902;2023-04-15T14:24:22;44.80;;;32.90;;
17524;SDS011;40431;52.198;9.902;2023-04-15T14:26:49;44.47;;;33.27;;
17524;SDS011;40431;52.198;9.902;2023-04-15T14:29:17;45.80;;;34.10;;
17524;SDS011;40431;52.198;9.902;2023-04-15T14:31:43;40.30;;;32.27;;
17524;SDS011;40431;52.198;9.902;2023-04-15T14:34:10;39.80;;;32.67;;
17524;SDS011;40431;52.198;9.902;2023-04-15T14:36:36;38.03;;;32.17;;
17524;SDS011;40431;52.198;9.902;2023-04-15T14:39:03;35.93;;;30.33;;
17524;SDS011;40431;52.198;9.902;2023-04-15T14:41:29;36.50;;;30.67;;